This is the latest recevied weather packets stored in our database for station/object OK1FET-4. If no packets are shown the sender has not sent any weather packets the latest 1 day(s).
| Time | Temp. | Humidity | Pressure | Rain* | Wind** | Luminosity | Snow |
|---|---|---|---|---|---|---|---|
| 1777952249 | 12.78° C | 95% | 1009.7 hPa | - | 2.24 m/s, 241° | - | - |
| 1777951949 | 12.78° C | 95% | 1009.8 hPa | - | 2.68 m/s, 242° | - | - |
| 1777951949 | 12.78° C | 95% | 1009.8 hPa | - | 2.68 m/s, 242° | - | - |
| 1777951949 | 12.78° C | 95% | 1009.8 hPa | - | 2.68 m/s, 242° | - | - |
| 1777951649 | 12.78° C | 95% | 1009.8 hPa | - | 2.24 m/s, 234° | - | - |
| 1777951649 | 12.78° C | 95% | 1009.8 hPa | - | 2.24 m/s, 234° | - | - |
| 1777951649 | 12.78° C | 95% | 1009.8 hPa | - | 2.24 m/s, 234° | - | - |
| 1777951348 | 12.78° C | 95% | 1009.7 hPa | - | 2.24 m/s, 232° | - | - |
| 1777951348 | 12.78° C | 95% | 1009.7 hPa | - | 2.24 m/s, 232° | - | - |
| 1777951048 | 12.78° C | 95% | 1009.7 hPa | - | 1.79 m/s, 228° | - | - |
| 1777951048 | 12.78° C | 95% | 1009.7 hPa | - | 1.79 m/s, 228° | - | - |
| 1777951048 | 12.78° C | 95% | 1009.7 hPa | - | 1.79 m/s, 228° | - | - |
| 1777950748 | 12.22° C | 95% | 1009.7 hPa | - | 1.79 m/s, 246° | - | - |
| 1777950748 | 12.22° C | 95% | 1009.7 hPa | - | 1.79 m/s, 246° | - | - |
| 1777950447 | 12.78° C | 95% | 1009.8 hPa | - | 2.24 m/s, 258° | - | - |
| 1777950447 | 12.78° C | 95% | 1009.8 hPa | - | 2.24 m/s, 258° | - | - |
| 1777950447 | 12.78° C | 95% | 1009.8 hPa | - | 2.24 m/s, 258° | - | - |
| 1777950147 | 12.78° C | 95% | 1009.9 hPa | - | 1.79 m/s, 263° | - | - |
| 1777950147 | 12.78° C | 95% | 1009.9 hPa | - | 1.79 m/s, 263° | - | - |
| 1777949847 | 12.78° C | 94% | 1009.9 hPa | - | 0.89 m/s, 237° | - | - |
| 1777949847 | 12.78° C | 94% | 1009.9 hPa | - | 0.89 m/s, 237° | - | - |
| 1777949847 | 12.78° C | 94% | 1009.9 hPa | - | 0.89 m/s, 237° | - | - |
| 1777949547 | 12.78° C | 94% | 1009.9 hPa | - | 1.34 m/s, 239° | - | - |
| 1777949546 | 12.78° C | 94% | 1009.9 hPa | - | 1.34 m/s, 239° | - | - |
| 1777949546 | 12.78° C | 94% | 1009.9 hPa | - | 1.34 m/s, 239° | - | - |
* Rain since midnight (hover to see other rain measurements)
** Current wind speed in m/s (hover to see current wind gust speed)